createdAt,value
2019-04-02T00:00:30.369Z,59.84
2019-04-02T00:01:30.371Z,60.15
2019-04-02T00:02:30.352Z,59.84
2019-04-02T00:03:30.344Z,60.46
2019-04-02T00:04:30.355Z,60.35
2019-04-02T00:05:30.321Z,60.35
2019-04-02T00:06:31.126Z,60.46
2019-04-02T00:07:30.299Z,60.59
2019-04-02T00:08:31.244Z,61.00
2019-04-02T00:09:30.289Z,59.53
2019-04-02T00:10:30.268Z,60.69
2019-04-02T00:11:30.256Z,59.42
2019-04-02T00:12:30.290Z,59.66
2019-04-02T00:13:30.236Z,60.59
2019-04-02T00:14:30.241Z,60.28
2019-04-02T00:15:30.218Z,61.10
2019-04-02T00:16:30.190Z,59.56
2019-04-02T00:17:30.189Z,59.77
2019-04-02T00:18:30.181Z,59.97
2019-04-02T00:19:30.191Z,60.28
2019-04-02T00:20:30.161Z,60.59
2019-04-02T00:21:31.133Z,61.41
2019-04-02T00:22:30.126Z,61.41
2019-04-02T00:23:30.117Z,60.28
2019-04-02T00:24:30.133Z,60.38
2019-04-02T00:25:30.099Z,60.17
2019-04-02T00:26:30.106Z,61.41
2019-04-02T00:27:30.068Z,60.49
2019-04-02T00:28:30.073Z,61.21
2019-04-02T00:29:30.070Z,60.38
2019-04-02T00:30:30.035Z,60.49
2019-04-02T00:31:30.034Z,60.38
2019-04-02T00:32:30.021Z,61.31
2019-04-02T00:33:30.018Z,60.17
2019-04-02T00:34:30.022Z,60.28
2019-04-02T00:35:29.994Z,60.17
2019-04-02T00:36:29.980Z,60.17
2019-04-02T00:37:29.968Z,60.38
2019-04-02T00:38:29.961Z,60.59
2019-04-02T00:39:29.967Z,60.17
2019-04-02T00:40:29.936Z,60.17
2019-04-02T00:41:30.367Z,60.28
2019-04-02T00:42:29.912Z,60.21
2019-04-02T00:43:29.912Z,60.28
2019-04-02T00:44:29.914Z,61.41
2019-04-02T00:45:29.873Z,60.59
2019-04-02T00:46:29.867Z,61.41
2019-04-02T00:47:29.853Z,60.59
2019-04-02T00:48:29.851Z,60.49
2019-04-02T00:49:29.853Z,60.38
2019-04-02T00:50:29.846Z,60.38
2019-04-02T00:51:29.824Z,60.69
2019-04-02T00:52:29.805Z,60.28
2019-04-02T00:53:29.789Z,60.38
2019-04-02T00:54:30.254Z,60.28
2019-04-02T00:55:30.370Z,60.38
2019-04-02T00:56:29.770Z,61.10
2019-04-02T00:57:29.743Z,60.28
2019-04-02T00:58:29.731Z,60.28
2019-04-02T00:59:29.729Z,60.38
2019-04-02T01:00:29.741Z,60.51
2019-04-02T01:01:29.705Z,61.00
2019-04-02T01:02:29.689Z,60.89
2019-04-02T01:04:39.446Z,60.89
2019-04-02T01:05:39.887Z,61.21
2019-04-02T01:06:39.844Z,61.33
2019-04-02T01:07:39.833Z,61.24
2019-04-02T01:08:39.835Z,61.03
2019-04-02T01:09:39.822Z,61.33
2019-04-02T01:10:39.824Z,61.33
2019-04-02T01:11:39.806Z,61.24
2019-04-02T01:12:39.785Z,61.24
2019-04-02T01:13:39.780Z,61.24
2019-04-02T01:14:39.778Z,61.75
2019-04-02T01:15:39.774Z,61.65
2019-04-02T01:16:39.745Z,61.03
2019-04-02T01:17:40.700Z,61.54
2019-04-02T01:18:39.726Z,61.65
2019-04-02T01:19:39.862Z,61.24
2019-04-02T01:20:39.726Z,61.24
2019-04-02T01:21:39.697Z,61.03
2019-04-02T01:22:39.687Z,61.03
2019-04-02T01:23:39.677Z,61.54
2019-04-02T01:24:39.667Z,61.75
2019-04-02T01:25:39.665Z,61.65
2019-04-02T01:26:39.635Z,61.65
2019-04-02T01:27:39.621Z,61.75
2019-04-02T01:28:39.619Z,61.75
2019-04-02T01:29:39.604Z,61.54
2019-04-02T01:30:39.615Z,61.47
2019-04-02T01:31:39.580Z,61.65
2019-04-02T01:32:39.582Z,61.75
2019-04-02T01:33:40.274Z,61.54
2019-04-02T01:34:39.551Z,61.75
2019-04-02T01:35:39.563Z,61.98
2019-04-02T01:36:39.529Z,61.85
2019-04-02T01:37:39.522Z,62.06
2019-04-02T01:38:39.515Z,61.85
2019-04-02T01:39:39.501Z,62.06
2019-04-02T01:40:39.510Z,62.08
2019-04-02T01:41:39.471Z,62.19
2019-04-02T01:42:39.460Z,62.60
2019-04-02T01:43:39.453Z,63.09
2019-04-02T01:44:39.454Z,62.81
2019-04-02T01:45:39.453Z,62.81
2019-04-02T01:46:39.425Z,62.60
2019-04-02T01:47:39.421Z,63.01
2019-04-02T01:48:39.409Z,62.40
2019-04-02T01:49:39.618Z,62.40
2019-04-02T01:50:39.413Z,62.60
2019-04-02T01:51:39.372Z,62.50
2019-04-02T01:52:39.360Z,62.50
2019-04-02T01:53:39.346Z,62.63
2019-04-02T01:54:39.331Z,62.40
2019-04-02T01:55:39.347Z,62.43
2019-04-02T01:56:39.315Z,62.63
2019-04-02T01:57:39.303Z,62.84
2019-04-02T01:58:39.304Z,62.94
2019-04-02T01:59:39.278Z,62.53
2019-04-02T02:00:39.288Z,62.63
2019-04-02T02:01:39.271Z,62.84
2019-04-02T02:02:39.251Z,62.84
2019-04-02T02:03:39.243Z,62.94
2019-04-02T02:04:39.234Z,63.04
2019-04-02T02:05:39.243Z,63.35
2019-04-02T02:06:41.063Z,63.25
2019-04-02T02:07:39.550Z,62.94
2019-04-02T02:08:39.188Z,63.35
2019-04-02T02:09:39.187Z,63.25
2019-04-02T02:10:39.202Z,63.56
2019-04-02T02:11:39.162Z,63.77
2019-04-02T02:12:39.150Z,63.25
2019-04-02T02:13:39.147Z,63.56
2019-04-02T02:14:39.120Z,63.15
2019-04-02T02:15:39.124Z,63.15
2019-04-02T02:16:39.111Z,63.56
2019-04-02T02:17:39.102Z,63.56
2019-04-02T02:18:39.079Z,63.56
2019-04-02T02:19:39.069Z,63.79
2019-04-02T02:20:39.093Z,64.31
2019-04-02T02:21:39.060Z,64.28
2019-04-02T02:22:39.034Z,64.28
2019-04-02T02:23:40.251Z,64.21
2019-04-02T02:24:39.016Z,64.28
2019-04-02T02:25:39.037Z,64.18
2019-04-02T02:26:39.020Z,64.18
2019-04-02T02:27:38.986Z,64.11
2019-04-02T02:28:38.980Z,64.00
2019-04-02T02:29:38.964Z,64.39
2019-04-02T02:30:38.992Z,64.21
2019-04-02T02:31:38.977Z,64.31
2019-04-02T02:32:38.942Z,64.00
2019-04-02T02:33:38.935Z,64.21
2019-04-02T02:34:39.473Z,64.21
2019-04-02T02:35:40.015Z,64.00
2019-04-02T02:36:40.229Z,64.73
2019-04-02T02:37:41.068Z,64.83
2019-04-02T02:38:39.752Z,64.73
2019-04-02T02:39:40.590Z,64.83
2019-04-02T02:40:40.666Z,64.73
2019-04-02T02:41:38.836Z,64.73
2019-04-02T02:42:38.830Z,65.03
2019-04-02T02:43:38.815Z,64.42
2019-04-02T02:44:38.833Z,65.14
2019-04-02T02:45:38.826Z,64.86
2019-04-02T02:46:38.790Z,64.86
2019-04-02T02:47:38.779Z,65.48
2019-04-02T02:48:38.766Z,65.17
2019-04-02T02:49:38.764Z,64.65
2019-04-02T02:50:38.751Z,65.27
2019-04-02T02:51:38.740Z,65.37
2019-04-02T02:52:38.723Z,65.06
2019-04-02T02:53:38.719Z,65.58
2019-04-02T02:54:38.698Z,65.69
2019-04-02T02:55:38.727Z,65.48
2019-04-02T02:56:38.698Z,65.27
2019-04-02T02:57:38.661Z,65.27
2019-04-02T02:58:38.659Z,65.37
2019-04-02T02:59:38.636Z,64.96
2019-04-02T03:00:38.634Z,65.06
2019-04-02T03:01:38.735Z,65.17
2019-04-02T03:02:38.617Z,65.58
2019-04-02T03:03:38.608Z,64.76
2019-04-02T03:05:47.787Z,65.58
2019-04-02T03:06:48.789Z,64.86
2019-04-02T03:07:48.772Z,65.24
2019-04-02T03:08:48.759Z,65.17
2019-04-02T03:09:48.747Z,65.37
2019-04-02T03:10:48.737Z,64.76
2019-04-02T03:11:48.740Z,65.06
2019-04-02T03:12:48.710Z,65.58
2019-04-02T03:13:48.704Z,65.69
2019-04-02T03:14:48.679Z,65.58
2019-04-02T03:15:48.714Z,65.69
2019-04-02T03:16:48.689Z,65.89
2019-04-02T03:17:48.663Z,65.69
2019-04-02T03:18:48.663Z,65.89
2019-04-02T03:19:49.573Z,66.00
2019-04-02T03:20:48.621Z,65.89
2019-04-02T03:21:48.631Z,65.45
2019-04-02T03:22:48.611Z,65.45
2019-04-02T03:23:49.059Z,65.66
2019-04-02T03:24:51.094Z,65.76
2019-04-02T03:25:48.574Z,65.34
2019-04-02T03:26:51.442Z,65.24
2019-04-02T03:27:48.545Z,65.24
2019-04-02T03:28:48.527Z,65.45
2019-04-02T03:29:48.516Z,65.66
2019-04-02T03:30:48.513Z,65.97
2019-04-02T03:31:48.553Z,65.76
2019-04-02T03:32:48.498Z,65.97
2019-04-02T03:33:49.600Z,65.86
2019-04-02T03:34:48.481Z,65.76
2019-04-02T03:35:49.993Z,65.86
2019-04-02T03:36:48.469Z,65.76
2019-04-02T03:37:48.424Z,65.76
2019-04-02T03:38:48.435Z,65.86
2019-04-02T03:39:48.417Z,65.97
2019-04-02T03:40:48.404Z,65.97
2019-04-02T03:41:48.414Z,65.97
2019-04-02T03:42:48.378Z,65.76
2019-04-02T03:43:48.369Z,65.97
2019-04-02T03:44:48.366Z,65.86
2019-04-02T03:45:48.353Z,66.17
2019-04-02T03:46:48.361Z,66.07
2019-04-02T03:47:48.328Z,66.07
2019-04-02T03:48:48.322Z,65.97
2019-04-02T03:49:48.301Z,66.27
2019-04-02T03:50:52.145Z,66.38
2019-04-02T03:51:48.305Z,66.51
2019-04-02T03:52:48.418Z,66.27
2019-04-02T03:53:49.654Z,65.76
2019-04-02T03:54:48.251Z,65.86
2019-04-02T03:55:48.233Z,65.76
2019-04-02T03:56:48.329Z,65.86
2019-04-02T03:57:48.218Z,66.48
2019-04-02T03:58:48.209Z,65.97
2019-04-02T03:59:48.186Z,66.48
2019-04-02T04:00:48.184Z,66.27
2019-04-02T04:01:48.185Z,66.17
2019-04-02T04:02:48.187Z,66.27
2019-04-02T04:03:48.155Z,66.27
2019-04-02T04:04:48.151Z,66.27
2019-04-02T04:05:48.131Z,66.48
2019-04-02T04:06:48.120Z,66.38
2019-04-02T04:07:48.140Z,66.58
2019-04-02T04:08:48.116Z,66.69
2019-04-02T04:09:48.298Z,66.58
2019-04-02T04:10:48.080Z,66.89
2019-04-02T04:11:48.069Z,66.79
2019-04-02T04:12:48.078Z,66.69
2019-04-02T04:13:48.034Z,66.89
2019-04-02T04:14:48.060Z,66.89
2019-04-02T04:15:48.032Z,66.93
2019-04-02T04:16:48.415Z,67.10
2019-04-02T04:17:48.788Z,67.00
2019-04-02T04:18:49.421Z,66.82
2019-04-02T04:19:49.290Z,67.34
2019-04-02T04:20:47.966Z,66.72
2019-04-02T04:21:47.945Z,67.34
2019-04-02T04:22:47.959Z,67.24
2019-04-02T04:23:47.934Z,67.13
2019-04-02T04:24:47.931Z,67.13
2019-04-02T04:25:47.920Z,66.82
2019-04-02T04:26:47.903Z,67.03
2019-04-02T04:27:47.912Z,67.30
2019-04-02T04:28:47.882Z,67.41
2019-04-02T04:29:47.862Z,67.21
2019-04-02T04:30:47.882Z,67.21
2019-04-02T04:31:47.844Z,67.34
2019-04-02T04:32:47.853Z,66.69
2019-04-02T04:33:47.821Z,66.79
2019-04-02T04:34:47.818Z,67.21
2019-04-02T04:35:47.811Z,67.51
2019-04-02T04:36:47.788Z,67.30
2019-04-02T04:37:47.823Z,67.10
2019-04-02T04:38:48.963Z,67.00
2019-04-02T04:39:49.216Z,67.00
2019-04-02T04:40:49.575Z,66.89
2019-04-02T04:41:49.641Z,67.00
2019-04-02T04:42:49.670Z,67.00
2019-04-02T04:43:47.730Z,67.00
2019-04-02T04:44:47.698Z,67.10
2019-04-02T04:45:47.694Z,67.00
2019-04-02T04:46:47.678Z,67.10
2019-04-02T04:47:47.687Z,67.13
2019-04-02T04:48:47.659Z,67.00
2019-04-02T04:49:47.657Z,67.21
2019-04-02T04:50:47.633Z,67.10
2019-04-02T04:51:47.629Z,67.21
2019-04-02T04:52:47.633Z,67.61
2019-04-02T04:53:47.608Z,67.65
2019-04-02T04:54:47.620Z,67.75
2019-04-02T04:55:47.583Z,67.72
2019-04-02T04:56:47.577Z,67.51
2019-04-02T04:57:47.591Z,67.41
2019-04-02T04:58:47.557Z,67.72
2019-04-02T04:59:47.538Z,67.30
2019-04-02T05:00:49.641Z,67.72
2019-04-02T05:01:48.489Z,67.51
2019-04-02T05:02:47.562Z,68.06
2019-04-02T05:03:47.497Z,68.24
2019-04-02T05:04:47.492Z,68.16
2019-04-02T05:06:56.657Z,68.44
2019-04-02T05:07:57.659Z,68.34
2019-04-02T05:08:57.643Z,67.85
2019-04-02T05:09:57.638Z,67.93
2019-04-02T05:10:57.616Z,68.44
2019-04-02T05:11:57.623Z,67.93
2019-04-02T05:12:57.617Z,68.06
2019-04-02T05:13:57.613Z,68.27
2019-04-02T05:14:57.585Z,67.96
2019-04-02T05:15:57.566Z,67.61
2019-04-02T05:16:57.560Z,67.96
2019-04-02T05:17:57.542Z,68.06
2019-04-02T05:18:57.568Z,68.03
2019-04-02T05:19:57.557Z,67.96
2019-04-02T05:20:57.518Z,68.48
2019-04-02T05:21:57.505Z,68.37
2019-04-02T05:22:57.503Z,68.16
2019-04-02T05:23:58.793Z,68.16
2019-04-02T05:24:57.462Z,68.37
2019-04-02T05:25:57.465Z,68.24
2019-04-02T05:26:57.906Z,68.44
2019-04-02T05:27:57.431Z,68.58
2019-04-02T05:28:57.464Z,68.16
2019-04-02T05:29:57.414Z,68.44
2019-04-02T05:30:57.412Z,68.24
2019-04-02T05:31:57.497Z,68.27
2019-04-02T05:32:57.378Z,68.88
2019-04-02T05:33:58.407Z,68.03
2019-04-02T05:34:57.355Z,68.54
2019-04-02T05:35:57.351Z,68.54
2019-04-02T05:36:57.344Z,68.13
2019-04-02T05:37:59.941Z,68.24
2019-04-02T05:38:57.400Z,68.54
2019-04-02T05:39:57.365Z,68.24
2019-04-02T05:40:57.336Z,68.03
2019-04-02T05:41:57.294Z,68.13
2019-04-02T05:42:57.268Z,68.24
2019-04-02T05:43:57.280Z,68.00
2019-04-02T05:44:57.260Z,67.93
2019-04-02T05:45:57.250Z,67.79
2019-04-02T05:46:57.417Z,67.79
2019-04-02T05:47:57.253Z,68.00
2019-04-02T05:48:57.234Z,68.00
2019-04-02T05:49:57.194Z,68.10
2019-04-02T05:50:57.522Z,67.90
2019-04-02T05:51:57.186Z,67.69
2019-04-02T05:52:57.187Z,67.17
2019-04-02T05:53:57.196Z,67.38
2019-04-02T05:54:57.167Z,67.03
2019-04-02T05:55:57.172Z,67.03
2019-04-02T05:56:57.129Z,66.83
2019-04-02T05:57:57.114Z,66.73
2019-04-02T05:58:57.214Z,67.03
2019-04-02T05:59:59.289Z,66.83
2019-04-02T06:00:57.081Z,66.94
2019-04-02T06:01:57.067Z,67.11
2019-04-02T06:02:57.062Z,67.32
2019-04-02T06:03:57.136Z,67.21
2019-04-02T06:04:57.056Z,66.70
2019-04-02T06:05:57.092Z,66.80
2019-04-02T06:06:57.046Z,66.70
2019-04-02T06:07:57.017Z,66.70
2019-04-02T06:08:57.125Z,66.46
2019-04-02T06:09:56.988Z,66.36
2019-04-02T06:10:56.989Z,66.05
2019-04-02T06:11:56.988Z,66.46
2019-04-02T06:12:57.051Z,65.81
2019-04-02T06:13:56.999Z,65.64
2019-04-02T06:14:57.419Z,66.12
2019-04-02T06:15:56.930Z,66.02
2019-04-02T06:16:56.922Z,65.92
2019-04-02T06:17:56.900Z,65.92
2019-04-02T06:18:56.911Z,65.68
2019-04-02T06:19:58.750Z,65.61
2019-04-02T06:20:56.883Z,65.58
2019-04-02T06:21:56.847Z,65.50
2019-04-02T06:22:56.856Z,65.47
2019-04-02T06:23:56.867Z,65.37
2019-04-02T06:24:56.832Z,64.75
2019-04-02T06:25:56.809Z,64.83
2019-04-02T06:26:56.805Z,65.23
2019-04-02T06:27:56.799Z,65.03
2019-04-02T06:28:58.199Z,65.03
2019-04-02T06:29:56.781Z,64.93
2019-04-02T06:30:56.797Z,64.72
2019-04-02T06:31:56.745Z,64.62
2019-04-02T06:32:56.737Z,64.48
2019-04-02T06:33:56.751Z,64.48
2019-04-02T06:34:56.722Z,64.39
2019-04-02T06:35:56.736Z,64.69
2019-04-02T06:36:56.707Z,64.07
2019-04-02T06:37:56.681Z,64.69
2019-04-02T06:38:56.691Z,64.66
2019-04-02T06:39:56.675Z,64.25
2019-04-02T06:40:56.651Z,63.94
2019-04-02T06:41:56.631Z,63.74
2019-04-02T06:42:56.631Z,63.74
2019-04-02T06:43:56.647Z,63.94
2019-04-02T06:44:56.627Z,63.53
2019-04-02T06:45:56.614Z,63.71
2019-04-02T06:46:56.604Z,63.91
2019-04-02T06:47:56.599Z,64.01
2019-04-02T06:48:56.578Z,64.01
2019-04-02T06:49:56.574Z,63.98
2019-04-02T06:50:56.536Z,63.06
2019-04-02T06:51:56.527Z,63.71
2019-04-02T06:52:56.887Z,62.85
2019-04-02T06:53:57.732Z,63.27
2019-04-02T06:54:56.847Z,63.27
2019-04-02T06:55:58.327Z,63.03
2019-04-02T06:56:56.477Z,62.73
2019-04-02T06:57:59.742Z,62.52
2019-04-02T06:58:56.463Z,62.83
2019-04-02T06:59:56.557Z,62.31
2019-04-02T07:00:56.433Z,62.73
2019-04-02T07:01:56.432Z,62.70
2019-04-02T07:02:56.464Z,62.49
2019-04-02T07:03:56.420Z,63.21
2019-04-02T07:04:56.403Z,63.03
2019-04-02T07:05:56.385Z,63.00
2019-04-02T07:08:05.600Z,62.49
2019-04-02T07:09:06.586Z,62.26
2019-04-02T07:10:07.323Z,62.46
2019-04-02T07:11:06.512Z,62.36
2019-04-02T07:12:06.522Z,62.36
2019-04-02T07:13:06.532Z,62.26
2019-04-02T07:14:06.489Z,62.77
2019-04-02T07:15:06.523Z,62.56
2019-04-02T07:16:06.473Z,61.92
2019-04-02T07:17:06.495Z,62.26
2019-04-02T07:18:06.472Z,62.12
2019-04-02T07:19:06.424Z,62.02
2019-04-02T07:20:06.440Z,62.33
2019-04-02T07:21:06.812Z,62.33
2019-04-02T07:22:06.790Z,62.30
2019-04-02T07:23:07.726Z,61.38
2019-04-02T07:24:07.892Z,61.79
2019-04-02T07:25:06.396Z,61.45
2019-04-02T07:26:06.362Z,61.18
2019-04-02T07:27:06.372Z,60.94
2019-04-02T07:28:06.330Z,61.04
2019-04-02T07:29:06.336Z,60.94
2019-04-02T07:30:06.366Z,60.53
2019-04-02T07:31:06.315Z,61.01
2019-04-02T07:32:06.308Z,60.71
2019-04-02T07:33:06.298Z,60.81
2019-04-02T07:34:06.277Z,60.40
2019-04-02T07:35:06.300Z,60.10
2019-04-02T07:36:08.943Z,60.68
2019-04-02T07:37:06.317Z,60.44
2019-04-02T07:38:06.575Z,59.94
2019-04-02T07:39:07.763Z,59.83
2019-04-02T07:40:06.237Z,59.19
2019-04-02T07:41:07.210Z,59.50
2019-04-02T07:42:06.206Z,58.98
2019-04-02T07:43:06.173Z,58.75
2019-04-02T07:44:06.164Z,58.98
2019-04-02T07:45:06.335Z,59.50
2019-04-02T07:46:06.159Z,59.19
2019-04-02T07:47:06.139Z,58.98
2019-04-02T07:48:06.130Z,59.39
2019-04-02T07:49:06.114Z,59.06
2019-04-02T07:50:08.439Z,59.09
2019-04-02T07:51:06.098Z,59.19
2019-04-02T07:52:06.079Z,59.67
2019-04-02T07:53:06.061Z,59.57
2019-04-02T07:54:06.053Z,59.47
2019-04-02T07:55:06.060Z,59.55
2019-04-02T07:56:06.819Z,59.37
2019-04-02T07:57:06.013Z,58.96
2019-04-02T07:58:07.288Z,59.27
2019-04-02T07:59:06.298Z,59.03
2019-04-02T08:00:06.065Z,59.03
2019-04-02T08:01:05.978Z,58.73
2019-04-02T08:02:08.681Z,58.73
2019-04-02T08:03:05.946Z,58.22
2019-04-02T08:04:05.939Z,58.29
2019-04-02T08:05:05.965Z,58.70
2019-04-02T08:06:05.920Z,58.50
2019-04-02T08:07:05.915Z,58.67
2019-04-02T08:08:05.908Z,57.96
2019-04-02T08:09:05.890Z,57.62
2019-04-02T08:10:05.902Z,57.12
2019-04-02T08:11:05.876Z,57.32
2019-04-02T08:12:05.855Z,56.81
2019-04-02T08:13:06.193Z,57.55
2019-04-02T08:14:06.296Z,57.73
2019-04-02T08:15:06.949Z,57.83
2019-04-02T08:16:05.818Z,58.57
2019-04-02T08:17:05.816Z,57.73
2019-04-02T08:18:05.799Z,57.93
2019-04-02T08:19:05.786Z,57.83
2019-04-02T08:20:05.784Z,57.32
2019-04-02T08:21:05.774Z,57.52
2019-04-02T08:22:05.748Z,57.50
2019-04-02T08:23:05.784Z,57.09
2019-04-02T08:24:05.728Z,57.26
2019-04-02T08:25:05.719Z,56.68
2019-04-02T08:26:05.718Z,56.45
2019-04-02T08:27:05.713Z,56.55
2019-04-02T08:28:05.683Z,56.32
2019-04-02T08:29:05.701Z,56.12
2019-04-02T08:30:05.669Z,56.32
2019-04-02T08:31:05.680Z,56.32
2019-04-02T08:32:05.638Z,55.89
2019-04-02T08:33:05.700Z,55.48
2019-04-02T08:34:07.913Z,55.58
2019-04-02T08:35:05.598Z,55.81
2019-04-02T08:36:06.709Z,55.91
2019-04-02T08:37:05.880Z,56.42
2019-04-02T08:38:08.008Z,56.63
2019-04-02T08:39:05.712Z,56.42
2019-04-02T08:40:05.556Z,56.52
2019-04-02T08:41:05.555Z,56.52
2019-04-02T08:42:08.348Z,56.42
2019-04-02T08:43:05.519Z,56.93
2019-04-02T08:44:05.507Z,57.37
2019-04-02T08:45:05.492Z,57.57
2019-04-02T08:46:06.053Z,57.57
2019-04-02T08:47:05.511Z,57.57
2019-04-02T08:48:05.457Z,58.08
2019-04-02T08:49:05.469Z,57.57
2019-04-02T08:50:05.445Z,57.57
2019-04-02T08:51:08.171Z,58.49
2019-04-02T08:52:05.412Z,58.18
2019-04-02T08:53:06.407Z,58.39
2019-04-02T08:54:05.387Z,57.98
2019-04-02T08:55:05.674Z,58.15
2019-04-02T08:56:05.383Z,57.54
2019-04-02T08:57:07.068Z,57.34
2019-04-02T08:58:05.352Z,57.82
2019-04-02T08:59:05.349Z,57.18
2019-04-02T09:00:05.426Z,56.68
2019-04-02T09:01:05.327Z,56.45
2019-04-02T09:02:06.066Z,55.94
2019-04-02T09:03:05.295Z,55.60
2019-04-02T09:04:05.291Z,55.68
2019-04-02T09:05:05.276Z,55.58
2019-04-02T09:06:05.458Z,54.84
2019-04-02T09:07:05.253Z,54.97
2019-04-02T09:09:15.631Z,54.66
2019-04-02T09:10:16.593Z,55.05
2019-04-02T09:11:27.545Z,54.82
2019-04-02T09:12:16.585Z,54.31
2019-04-02T09:13:16.579Z,54.31
2019-04-02T09:14:16.574Z,54.21
2019-04-02T09:15:16.570Z,54.31
2019-04-02T09:16:17.460Z,54.41
2019-04-02T09:17:16.863Z,54.11
2019-04-02T09:18:16.517Z,54.54
2019-04-02T09:19:16.503Z,54.87
2019-04-02T09:20:16.485Z,54.97
2019-04-02T09:21:16.500Z,55.07
2019-04-02T09:22:16.469Z,55.20
2019-04-02T09:23:16.459Z,55.07
2019-04-02T09:24:16.454Z,54.84
2019-04-02T09:25:16.430Z,54.74
2019-04-02T09:26:18.447Z,54.46
2019-04-02T09:27:16.437Z,55.27
2019-04-02T09:28:16.412Z,55.05
2019-04-02T09:29:16.410Z,54.94
2019-04-02T09:30:16.377Z,54.97
2019-04-02T09:31:16.430Z,55.51
2019-04-02T09:32:16.406Z,55.30
2019-04-02T09:33:16.379Z,55.60
2019-04-02T09:34:16.328Z,55.71
2019-04-02T09:35:16.325Z,55.60
2019-04-02T09:36:18.753Z,55.60
2019-04-02T09:37:16.309Z,55.20
2019-04-02T09:38:16.392Z,55.07
2019-04-02T09:39:16.298Z,55.07
2019-04-02T09:40:17.404Z,55.18
2019-04-02T09:41:16.378Z,54.84
2019-04-02T09:42:16.356Z,54.61
2019-04-02T09:43:16.237Z,54.51
2019-04-02T09:44:16.237Z,54.51
2019-04-02T09:45:16.277Z,54.61
2019-04-02T09:46:16.208Z,54.74
2019-04-02T09:47:16.223Z,54.92
2019-04-02T09:48:16.175Z,54.94
2019-04-02T09:49:16.171Z,54.72
2019-04-02T09:50:16.161Z,54.31
2019-04-02T09:51:16.161Z,54.11
2019-04-02T09:52:16.195Z,54.41
2019-04-02T09:53:16.136Z,54.49
2019-04-02T09:54:16.105Z,54.36
2019-04-02T09:55:16.113Z,53.63
2019-04-02T09:56:16.098Z,52.71
2019-04-02T09:57:16.107Z,52.71
2019-04-02T09:58:16.090Z,53.02
2019-04-02T09:59:16.099Z,53.25
2019-04-02T10:00:16.132Z,52.61
2019-04-02T10:01:16.036Z,53.75
2019-04-02T10:02:16.052Z,53.63
2019-04-02T10:03:16.604Z,52.92
2019-04-02T10:04:16.002Z,52.92
2019-04-02T10:05:16.014Z,53.12
2019-04-02T10:06:15.987Z,53.19
2019-04-02T10:07:15.991Z,53.09
2019-04-02T10:08:15.962Z,52.46
2019-04-02T10:09:15.998Z,52.06
2019-04-02T10:10:16.100Z,52.26
2019-04-02T10:11:15.938Z,52.06
2019-04-02T10:12:15.934Z,52.48
2019-04-02T10:13:15.907Z,52.69
2019-04-02T10:14:16.166Z,52.18
2019-04-02T10:15:15.877Z,52.31
2019-04-02T10:16:15.931Z,52.81
2019-04-02T10:17:16.276Z,53.09
2019-04-02T10:18:15.842Z,53.50
2019-04-02T10:19:15.912Z,52.48
2019-04-02T10:20:15.863Z,52.69
2019-04-02T10:21:16.447Z,52.89
2019-04-02T10:22:16.763Z,52.15
2019-04-02T10:23:15.879Z,52.76
2019-04-02T10:24:16.047Z,52.56
2019-04-02T10:25:15.783Z,51.93
2019-04-02T10:26:15.792Z,52.03
2019-04-02T10:27:15.784Z,52.13
2019-04-02T10:28:15.807Z,52.33
2019-04-02T10:29:15.736Z,52.03
2019-04-02T10:30:15.788Z,52.21
2019-04-02T10:31:15.712Z,52.23
2019-04-02T10:32:17.795Z,52.23
2019-04-02T10:33:15.685Z,52.26
2019-04-02T10:34:16.761Z,51.95
2019-04-02T10:35:16.787Z,52.76
2019-04-02T10:36:16.468Z,52.86
2019-04-02T10:37:15.721Z,52.64
2019-04-02T10:38:15.974Z,51.93
2019-04-02T10:39:15.625Z,52.74
2019-04-02T10:40:15.607Z,52.44
2019-04-02T10:41:15.608Z,52.23
2019-04-02T10:42:15.600Z,52.51
2019-04-02T10:43:15.565Z,52.41
2019-04-02T10:44:15.562Z,52.81
2019-04-02T10:45:24.981Z,51.90
2019-04-02T10:46:15.534Z,52.48
2019-04-02T10:47:15.538Z,52.11
2019-04-02T10:48:15.518Z,52.28
2019-04-02T10:49:15.517Z,51.37
2019-04-02T10:50:15.510Z,52.19
2019-04-02T10:51:15.484Z,51.28
2019-04-02T10:52:15.515Z,51.68
2019-04-02T10:53:15.459Z,52.28
2019-04-02T10:54:15.442Z,51.76
2019-04-02T10:55:15.440Z,52.23
2019-04-02T10:56:15.429Z,51.91
2019-04-02T10:57:15.452Z,50.90
2019-04-02T10:58:16.028Z,50.90
2019-04-02T10:59:15.398Z,50.80
2019-04-02T11:00:15.413Z,50.59
2019-04-02T11:01:15.370Z,50.27
2019-04-02T11:02:15.698Z,50.45
2019-04-02T11:03:16.404Z,50.24
2019-04-02T11:04:15.338Z,50.24
2019-04-02T11:05:18.291Z,50.52
2019-04-02T11:06:15.321Z,50.15
2019-04-02T11:07:15.313Z,50.70
2019-04-02T11:08:17.320Z,50.70
2019-04-02T11:10:24.478Z,50.24
2019-04-02T11:11:25.465Z,51.05
2019-04-02T11:12:25.482Z,50.32
2019-04-02T11:13:25.478Z,50.42
2019-04-02T11:14:25.460Z,49.99
2019-04-02T11:15:25.455Z,49.47
2019-04-02T11:16:25.405Z,49.47
2019-04-02T11:17:25.422Z,48.26
2019-04-02T11:18:27.290Z,48.54
2019-04-02T11:19:25.373Z,48.34
2019-04-02T11:20:25.390Z,48.16
2019-04-02T11:21:25.392Z,48.26
2019-04-02T11:22:25.345Z,48.08
2019-04-02T11:23:25.361Z,48.49
2019-04-02T11:24:27.316Z,48.46
2019-04-02T11:25:25.325Z,48.26
2019-04-02T11:26:26.784Z,48.36
2019-04-02T11:27:25.303Z,48.36
2019-04-02T11:28:25.336Z,48.06
2019-04-02T11:29:25.280Z,47.96
2019-04-02T11:30:25.308Z,48.06
2019-04-02T11:31:25.245Z,48.06
2019-04-02T11:32:25.237Z,48.26
2019-04-02T11:33:25.250Z,48.46
2019-04-02T11:34:25.211Z,48.14
2019-04-02T11:35:25.204Z,48.03
2019-04-02T11:36:25.183Z,47.91
2019-04-02T11:37:25.187Z,47.41
2019-04-02T11:38:25.185Z,47.51
2019-04-02T11:39:25.155Z,47.51
2019-04-02T11:40:25.141Z,47.20
2019-04-02T11:41:25.127Z,47.74
2019-04-02T11:42:25.133Z,47.86
2019-04-02T11:43:25.179Z,48.46
2019-04-02T11:44:25.762Z,48.56
2019-04-02T11:45:25.119Z,48.03
2019-04-02T11:46:27.673Z,48.44
2019-04-02T11:47:25.088Z,47.94
2019-04-02T11:48:25.077Z,47.94
2019-04-02T11:49:25.053Z,48.46
2019-04-02T11:50:25.028Z,48.96
2019-04-02T11:51:25.027Z,49.19
2019-04-02T11:52:25.020Z,49.59
2019-04-02T11:53:25.025Z,49.77
2019-04-02T11:54:25.137Z,49.07
2019-04-02T11:55:25.004Z,49.15
2019-04-02T11:56:24.976Z,48.36
2019-04-02T11:57:25.035Z,48.86
2019-04-02T11:58:24.970Z,49.07
2019-04-02T11:59:24.932Z,49.47
2019-04-02T12:00:24.931Z,49.49
2019-04-02T12:01:24.910Z,49.79
2019-04-02T12:02:24.915Z,49.47
2019-04-02T12:03:24.917Z,49.49
2019-04-02T12:04:25.184Z,49.47
2019-04-02T12:05:24.877Z,49.47
2019-04-02T12:06:32.661Z,49.49
2019-04-02T12:07:24.861Z,49.79
2019-04-02T12:08:24.855Z,49.79
2019-04-02T12:09:24.834Z,49.77
2019-04-02T12:10:24.817Z,50.10
2019-04-02T12:11:24.826Z,49.59
2019-04-02T12:12:24.787Z,49.87
2019-04-02T12:13:24.802Z,49.97
2019-04-02T12:14:24.793Z,49.65
2019-04-02T12:15:45.300Z,48.94
2019-04-02T12:16:26.568Z,49.67
2019-04-02T12:17:24.765Z,50.07
2019-04-02T12:18:24.750Z,50.15
2019-04-02T12:19:24.715Z,50.07
2019-04-02T12:20:24.731Z,49.97
2019-04-02T12:21:24.689Z,49.87
2019-04-02T12:22:24.697Z,50.27
2019-04-02T12:23:24.695Z,50.15
2019-04-02T12:24:24.666Z,50.05
2019-04-02T12:25:24.670Z,50.05
2019-04-02T12:26:24.640Z,50.20
2019-04-02T12:27:25.490Z,50.40
2019-04-02T12:28:24.634Z,49.90
2019-04-02T12:29:24.612Z,49.87
2019-04-02T12:30:24.597Z,49.75
2019-04-02T12:31:24.597Z,49.24
2019-04-02T12:32:24.585Z,48.94
2019-04-02T12:33:24.582Z,49.77
2019-04-02T12:34:24.598Z,50.07
2019-04-02T12:35:24.741Z,49.35
2019-04-02T12:36:24.526Z,49.42
2019-04-02T12:37:24.546Z,49.65
2019-04-02T12:38:24.522Z,49.95
2019-04-02T12:39:24.522Z,49.67
2019-04-02T12:40:24.501Z,50.40
2019-04-02T12:41:24.486Z,49.90
2019-04-02T12:42:24.478Z,49.97
2019-04-02T12:43:24.460Z,49.85
2019-04-02T12:44:24.469Z,49.44
2019-04-02T12:45:24.437Z,49.44
2019-04-02T12:46:24.434Z,50.05
2019-04-02T12:47:25.211Z,49.42
2019-04-02T12:48:24.410Z,49.10
2019-04-02T12:49:24.416Z,48.19
2019-04-02T12:50:24.394Z,48.47
2019-04-02T12:51:24.361Z,48.37
2019-04-02T12:52:24.365Z,48.01
2019-04-02T12:53:24.346Z,49.85
2019-04-02T12:54:24.359Z,49.47
2019-04-02T12:55:24.326Z,49.87
2019-04-02T12:56:24.321Z,50.57
2019-04-02T12:57:26.752Z,50.17
2019-04-02T12:58:24.296Z,50.60
2019-04-02T12:59:24.305Z,50.60